Cokercreek, Tennessee
Current Conditions -  °F | °C
As of 1:35 AM on Wednesday 28 Jan 2015 (Local Time) from KMMI Reporting Station
Overcast Overcast  
Wind Chill: -1°   Ceiling: 1800
Heat Index: -1°   Visibility: 9mi
Dew Point: -3°   Wind: 3mph
Humidity: 86%   Direction: 20°NNE
Pressure: 30.19"   Gusts: NA
Location:  35.27°N, 84.29°W
Report Text: KMMI 280635Z AUTO 02003KT 9SM BKN018 BKN027 OVC040 M01/M03 A3019 RMK
Loading
Personal Weather Stations






























Interactive Weather Map New forecast layout! Learn more

10-Day Weather Forecast

Advertisements
Track Severe Weather on mobile